createdAt,value
2019-05-25T00:01:52.185Z,68.10
2019-05-25T00:04:20.835Z,68.10
2019-05-25T00:06:49.465Z,67.90
2019-05-25T00:09:18.027Z,68.10
2019-05-25T00:11:46.702Z,67.80
2019-05-25T00:14:16.891Z,68.40
2019-05-25T00:16:45.477Z,68.50
2019-05-25T00:19:14.007Z,68.10
2019-05-25T00:21:42.578Z,67.90
2019-05-25T00:24:12.552Z,67.10
2019-05-25T00:26:41.505Z,66.70
2019-05-25T00:29:10.054Z,66.00
2019-05-25T00:31:38.627Z,65.50
2019-05-25T00:34:07.467Z,65.80
2019-05-25T00:36:36.008Z,65.90
2019-05-25T00:39:06.775Z,65.50
2019-05-25T00:41:35.990Z,65.60
2019-05-25T00:44:05.036Z,66.10
2019-05-25T00:46:33.566Z,66.00
2019-05-25T00:49:02.809Z,66.20
2019-05-25T00:51:31.487Z,66.40
2019-05-25T00:54:00.020Z,66.90
2019-05-25T00:56:28.584Z,66.90
2019-05-25T00:58:57.401Z,67.10
2019-05-25T01:01:25.998Z,67.60
2019-05-25T01:03:54.484Z,67.80
2019-05-25T01:06:23.033Z,68.20
2019-05-25T01:08:51.600Z,68.40
2019-05-25T01:11:39.759Z,68.10
2019-05-25T01:14:08.333Z,69.20
2019-05-25T01:16:38.873Z,70.40
2019-05-25T01:19:07.389Z,69.30
2019-05-25T01:21:37.172Z,69.60
2019-05-25T01:24:05.839Z,69.60
2019-05-25T01:26:34.386Z,70.00
2019-05-25T01:29:03.015Z,70.30
2019-05-25T01:31:31.559Z,71.00
2019-05-25T01:34:00.208Z,71.30
2019-05-25T01:36:29.080Z,71.70
2019-05-25T01:38:57.607Z,71.70
2019-05-25T01:41:26.177Z,72.30
2019-05-25T01:43:54.778Z,72.50
2019-05-25T01:46:23.351Z,73.00
2019-05-25T01:48:52.397Z,73.40
2019-05-25T01:51:21.004Z,73.80
2019-05-25T01:53:49.802Z,74.60
2019-05-25T01:56:18.347Z,74.30
2019-05-25T01:58:46.922Z,74.40
2019-05-25T02:01:15.470Z,74.60
2019-05-25T02:03:44.017Z,74.20
2019-05-25T02:06:12.582Z,74.10
2019-05-25T02:08:41.140Z,74.10
2019-05-25T02:11:09.702Z,73.80
2019-05-25T02:13:38.258Z,73.90
2019-05-25T02:16:06.940Z,73.40
2019-05-25T02:18:35.515Z,73.60
2019-05-25T02:21:04.150Z,72.90
2019-05-25T02:23:32.687Z,72.50
2019-05-25T02:26:01.195Z,71.90
2019-05-25T02:28:29.727Z,72.40
2019-05-25T02:30:58.506Z,72.50
2019-05-25T02:33:27.149Z,72.20
2019-05-25T02:35:56.875Z,73.50
2019-05-25T02:38:25.526Z,73.30
2019-05-25T02:40:54.361Z,73.40
2019-05-25T02:43:22.884Z,73.80
2019-05-25T02:45:51.464Z,74.10
2019-05-25T02:48:20.012Z,74.70
2019-05-25T02:50:48.710Z,74.80
2019-05-25T02:53:17.256Z,76.30
2019-05-25T02:55:45.807Z,76.20
2019-05-25T02:58:14.438Z,75.80
2019-05-25T03:00:43.350Z,75.90
2019-05-25T03:03:11.995Z,76.00
2019-05-25T03:05:41.334Z,75.50
2019-05-25T03:08:09.839Z,75.80
2019-05-25T03:10:59.261Z,75.50
2019-05-25T03:13:30.885Z,75.40
2019-05-25T03:15:59.591Z,74.90
2019-05-25T03:18:28.216Z,74.90
2019-05-25T03:20:56.758Z,74.80
2019-05-25T03:23:25.230Z,74.90
2019-05-25T03:25:53.809Z,75.20
2019-05-25T03:28:22.281Z,75.40
2019-05-25T03:30:50.920Z,75.50
2019-05-25T03:33:19.476Z,76.20
2019-05-25T03:35:48.091Z,76.00
2019-05-25T03:38:16.668Z,75.80
2019-05-25T03:40:45.201Z,76.60
2019-05-25T03:43:14.030Z,76.80
2019-05-25T03:45:42.878Z,77.40
2019-05-25T03:48:11.488Z,77.90
2019-05-25T03:50:40.162Z,78.10
2019-05-25T03:53:08.732Z,77.90
2019-05-25T03:55:37.271Z,77.90
2019-05-25T03:58:06.762Z,78.60
2019-05-25T04:00:55.000Z,78.20
2019-05-25T04:03:23.891Z,78.70
2019-05-25T04:05:52.538Z,78.60
2019-05-25T04:08:21.464Z,78.30
2019-05-25T04:10:50.095Z,78.40
2019-05-25T04:13:18.664Z,78.40
2019-05-25T04:15:47.276Z,78.70
2019-05-25T04:18:15.845Z,78.60
2019-05-25T04:20:44.688Z,78.40
2019-05-25T04:23:13.575Z,78.60
2019-05-25T04:25:42.080Z,79.20
2019-05-25T04:28:10.621Z,79.50
2019-05-25T04:30:39.191Z,80.10
2019-05-25T04:33:07.735Z,79.50
2019-05-25T04:35:36.348Z,79.40
2019-05-25T04:38:05.007Z,79.00
2019-05-25T04:40:33.549Z,79.10
2019-05-25T04:43:02.096Z,79.30
2019-05-25T04:45:30.667Z,79.50
2019-05-25T04:47:59.213Z,79.60
2019-05-25T04:50:27.780Z,78.70
2019-05-25T04:52:56.503Z,79.10
2019-05-25T04:55:25.138Z,78.60
2019-05-25T04:57:53.694Z,78.30
2019-05-25T05:00:22.212Z,78.70
2019-05-25T05:02:50.744Z,78.40
2019-05-25T05:05:19.587Z,76.60
2019-05-25T05:07:48.478Z,77.80
2019-05-25T05:10:17.370Z,76.90
2019-05-25T05:12:45.958Z,77.40
2019-05-25T05:15:14.739Z,77.50
2019-05-25T05:17:43.627Z,77.10
2019-05-25T05:20:13.739Z,76.20
2019-05-25T05:22:43.254Z,75.60
2019-05-25T05:25:12.398Z,75.50
2019-05-25T05:27:41.059Z,75.80
2019-05-25T05:30:09.961Z,77.70
2019-05-25T05:32:38.915Z,73.60
2019-05-25T05:35:09.038Z,72.70
2019-05-25T05:37:37.845Z,71.70
2019-05-25T05:40:07.972Z,69.80
2019-05-25T05:42:57.359Z,68.20
2019-05-25T05:45:46.759Z,67.60
2019-05-25T05:48:17.427Z,67.50
2019-05-25T05:50:48.414Z,67.80
2019-05-25T05:53:19.163Z,67.30
2019-05-25T05:55:47.731Z,68.70
2019-05-25T05:58:16.293Z,70.30
2019-05-25T06:00:45.140Z,69.90
2019-05-25T06:03:13.685Z,71.70
2019-05-25T06:05:42.278Z,72.40
2019-05-25T06:08:10.929Z,71.70
2019-05-25T06:10:39.555Z,73.20
2019-05-25T06:13:08.153Z,73.30
2019-05-25T06:15:36.723Z,72.00
2019-05-25T06:18:05.387Z,71.90
2019-05-25T06:20:34.211Z,71.20
2019-05-25T06:23:02.774Z,69.80
2019-05-25T06:25:32.156Z,68.90
2019-05-25T06:28:00.739Z,70.60
2019-05-25T06:30:29.280Z,69.10
2019-05-25T06:32:57.861Z,67.10
2019-05-25T06:35:26.791Z,69.20
2019-05-25T06:37:55.430Z,68.60
2019-05-25T06:40:24.418Z,68.00
2019-05-25T06:42:52.959Z,69.10
2019-05-25T06:45:22.089Z,71.20
2019-05-25T06:47:50.703Z,71.40
2019-05-25T06:50:19.633Z,71.80
2019-05-25T06:52:48.205Z,73.40
2019-05-25T06:55:16.831Z,71.30
2019-05-25T06:57:45.447Z,72.50
2019-05-25T07:00:15.815Z,70.10
2019-05-25T07:02:44.287Z,68.60
2019-05-25T07:05:13.162Z,70.50
2019-05-25T07:07:41.995Z,68.00
2019-05-25T07:10:10.786Z,60.00
2019-05-25T07:12:39.366Z,58.50
2019-05-25T07:15:09.947Z,57.60
2019-05-25T07:17:38.567Z,56.50
2019-05-25T07:20:08.271Z,58.10
2019-05-25T07:22:36.822Z,56.50
2019-05-25T07:25:07.155Z,59.50
2019-05-25T07:27:36.610Z,59.60
2019-05-25T07:30:07.407Z,59.50
2019-05-25T07:32:36.150Z,61.30
2019-05-25T07:35:08.443Z,61.40
2019-05-25T07:37:37.050Z,60.00
2019-05-25T07:40:07.656Z,60.50
2019-05-25T07:42:36.200Z,59.10
2019-05-25T07:45:28.557Z,63.40
2019-05-25T07:47:57.153Z,62.00
2019-05-25T07:50:25.687Z,59.10
2019-05-25T07:52:54.412Z,61.10
2019-05-25T07:55:23.158Z,59.80
2019-05-25T07:57:51.725Z,62.30
2019-05-25T08:00:21.882Z,60.40
2019-05-25T08:02:50.423Z,62.40
2019-05-25T08:05:19.067Z,62.70
2019-05-25T08:07:47.771Z,63.50
2019-05-25T08:10:18.777Z,62.70
2019-05-25T08:12:47.327Z,64.60
2019-05-25T08:15:16.058Z,62.10
2019-05-25T08:17:44.917Z,63.20
2019-05-25T08:20:14.401Z,62.40
2019-05-25T08:22:42.983Z,62.60
2019-05-25T08:25:11.847Z,63.80
2019-05-25T08:27:40.415Z,65.20
2019-05-25T08:30:09.600Z,62.90
2019-05-25T08:32:38.151Z,64.90
2019-05-25T08:35:10.176Z,64.70
2019-05-25T08:37:38.716Z,63.00
2019-05-25T08:40:07.791Z,63.80
2019-05-25T08:42:36.435Z,63.00
2019-05-25T08:45:07.087Z,65.80
2019-05-25T08:47:35.651Z,65.30
2019-05-25T08:50:07.920Z,64.40
2019-05-25T08:52:37.305Z,63.70
2019-05-25T08:55:26.715Z,66.00
2019-05-25T08:57:55.279Z,63.50
2019-05-25T09:00:23.940Z,65.00
2019-05-25T09:02:52.522Z,65.30
2019-05-25T09:05:21.067Z,66.20
2019-05-25T09:07:49.610Z,67.40
2019-05-25T09:10:18.417Z,63.70
2019-05-25T09:12:47.029Z,64.40
2019-05-25T09:15:15.807Z,64.20
2019-05-25T09:17:44.389Z,62.60
2019-05-25T09:20:13.269Z,65.20
2019-05-25T09:22:41.907Z,65.10
2019-05-25T09:25:10.715Z,61.80
2019-05-25T09:27:39.279Z,62.20
2019-05-25T09:30:09.202Z,62.40
2019-05-25T09:32:37.895Z,61.60
2019-05-25T09:35:09.626Z,62.80
2019-05-25T09:37:38.573Z,64.60
2019-05-25T09:40:08.493Z,64.60
2019-05-25T09:42:37.130Z,61.40
2019-05-25T09:45:08.278Z,60.50
2019-05-25T09:47:36.842Z,61.10
2019-05-25T09:50:09.141Z,60.40
2019-05-25T09:52:37.702Z,57.70
2019-05-25T09:55:08.233Z,59.40
2019-05-25T09:57:36.791Z,60.60
2019-05-25T10:00:14.835Z,59.60
2019-05-25T10:02:44.034Z,58.80
2019-05-25T10:05:13.875Z,56.70
2019-05-25T10:07:42.894Z,58.00
2019-05-25T10:10:12.293Z,57.70
2019-05-25T10:12:40.847Z,58.70
2019-05-25T10:15:09.950Z,58.20
2019-05-25T10:17:42.386Z,57.10
2019-05-25T10:20:11.662Z,57.70
2019-05-25T10:22:40.153Z,54.30
2019-05-25T10:25:10.187Z,57.30
2019-05-25T10:27:39.008Z,56.20
2019-05-25T10:30:09.707Z,55.70
2019-05-25T10:32:38.622Z,57.10
2019-05-25T10:35:10.571Z,56.90
2019-05-25T10:37:39.122Z,55.80
2019-05-25T10:40:08.514Z,56.60
2019-05-25T10:42:37.138Z,56.10
2019-05-25T10:45:09.666Z,57.50
2019-05-25T10:47:38.375Z,56.30
2019-05-25T10:50:08.828Z,56.40
2019-05-25T10:52:37.458Z,57.60
2019-05-25T10:55:08.069Z,56.00
2019-05-25T10:57:36.974Z,54.80
2019-05-25T11:00:07.891Z,54.60
2019-05-25T11:02:36.505Z,54.20
2019-05-25T11:05:09.143Z,56.60
2019-05-25T11:07:37.760Z,58.80
2019-05-25T11:10:08.577Z,57.00
2019-05-25T11:12:37.146Z,55.10
2019-05-25T11:15:26.498Z,55.90
2019-05-25T11:17:55.053Z,53.30
2019-05-25T11:20:42.935Z,55.70
2019-05-25T11:23:11.927Z,55.80
2019-05-25T11:25:40.554Z,54.80
2019-05-25T11:28:09.109Z,54.60
2019-05-25T11:30:37.683Z,57.00
2019-05-25T11:33:06.212Z,56.40
2019-05-25T11:35:34.896Z,56.70
2019-05-25T11:38:03.834Z,56.00
2019-05-25T11:40:32.368Z,56.10
2019-05-25T11:43:00.902Z,56.50
2019-05-25T11:45:29.460Z,55.00
2019-05-25T11:47:58.076Z,56.40
2019-05-25T11:50:26.628Z,55.30
2019-05-25T11:52:55.310Z,56.00
2019-05-25T11:55:24.050Z,57.00
2019-05-25T11:57:52.687Z,55.70
2019-05-25T12:00:25.365Z,55.10
2019-05-25T12:02:52.927Z,56.40
2019-05-25T12:05:21.927Z,53.10
2019-05-25T12:07:50.462Z,52.60
2019-05-25T12:10:20.252Z,51.80
2019-05-25T12:12:48.892Z,52.40
2019-05-25T12:15:18.678Z,50.60
2019-05-25T12:17:47.213Z,50.70
2019-05-25T12:20:16.523Z,51.80
2019-05-25T12:22:45.123Z,48.00
2019-05-25T12:25:14.097Z,46.70
2019-05-25T12:27:42.690Z,50.90
2019-05-25T12:30:11.780Z,51.40
2019-05-25T12:32:40.355Z,47.90
2019-05-25T12:35:09.668Z,48.20
2019-05-25T12:37:38.211Z,48.30
2019-05-25T12:40:08.021Z,47.60
2019-05-25T12:42:36.649Z,52.90
2019-05-25T12:45:06.454Z,44.70
2019-05-25T12:47:35.070Z,46.40
2019-05-25T12:50:05.467Z,46.70
2019-05-25T12:52:34.097Z,46.30
2019-05-25T12:55:02.730Z,43.50
2019-05-25T12:57:31.487Z,44.70
2019-05-25T13:00:14.220Z,47.10
2019-05-25T13:02:30.254Z,48.50
2019-05-25T13:04:58.862Z,44.70
2019-05-25T13:07:27.659Z,44.70
2019-05-25T13:09:56.309Z,46.80
2019-05-25T13:12:24.856Z,45.50
2019-05-25T13:14:53.491Z,44.00
2019-05-25T13:17:22.124Z,45.20
2019-05-25T13:19:50.786Z,44.20
2019-05-25T13:22:19.670Z,45.10
2019-05-25T13:24:48.244Z,47.80
2019-05-25T13:27:16.889Z,45.50
2019-05-25T13:29:45.734Z,49.50
2019-05-25T13:32:14.365Z,44.50
2019-05-25T13:34:44.666Z,47.00
2019-05-25T13:37:13.763Z,46.30
2019-05-25T13:39:42.336Z,46.60
2019-05-25T13:42:11.201Z,46.00
2019-05-25T13:44:39.776Z,43.20
2019-05-25T13:47:08.679Z,45.70
2019-05-25T13:49:37.236Z,44.90
2019-05-25T13:52:05.786Z,45.70
2019-05-25T13:54:34.427Z,43.00
2019-05-25T13:57:03.034Z,44.70
2019-05-25T13:59:31.638Z,45.80
2019-05-25T14:02:00.167Z,46.70
2019-05-25T14:04:28.705Z,43.60
2019-05-25T14:06:57.278Z,42.00
2019-05-25T14:09:25.746Z,42.80
2019-05-25T14:11:54.605Z,41.40
2019-05-25T14:14:24.526Z,44.70
2019-05-25T14:16:53.815Z,45.20
2019-05-25T14:19:22.435Z,44.20
2019-05-25T14:21:51.205Z,43.70
2019-05-25T14:24:19.777Z,41.90
2019-05-25T14:26:48.342Z,42.10
2019-05-25T14:29:16.996Z,45.00
2019-05-25T14:31:46.414Z,42.40
2019-05-25T14:34:16.183Z,42.90
2019-05-25T14:36:44.813Z,42.40
2019-05-25T14:39:13.369Z,42.00
2019-05-25T14:41:42.027Z,42.40
2019-05-25T14:44:10.656Z,43.10
2019-05-25T14:46:39.227Z,40.50
2019-05-25T14:49:07.911Z,42.00
2019-05-25T14:51:36.456Z,41.50
2019-05-25T14:54:05.187Z,42.90
2019-05-25T14:56:33.890Z,42.60
2019-05-25T14:59:02.435Z,42.70
2019-05-25T15:01:31.899Z,42.80
2019-05-25T15:04:00.503Z,40.80
2019-05-25T15:06:29.362Z,42.60
2019-05-25T15:08:58.080Z,42.10
2019-05-25T15:11:26.613Z,42.30
2019-05-25T15:13:55.187Z,43.40
2019-05-25T15:16:23.840Z,42.90
2019-05-25T15:18:53.805Z,39.60
2019-05-25T15:21:22.633Z,40.70
2019-05-25T15:23:51.194Z,41.30
2019-05-25T15:26:19.735Z,41.50
2019-05-25T15:28:48.306Z,40.40
2019-05-25T15:31:16.822Z,39.80
2019-05-25T15:33:45.379Z,44.00
2019-05-25T15:36:13.923Z,42.10
2019-05-25T15:38:42.510Z,40.50
2019-05-25T15:41:11.184Z,43.10
2019-05-25T15:43:40.161Z,40.20
2019-05-25T15:46:08.822Z,40.70
2019-05-25T15:48:37.355Z,42.90
2019-05-25T15:51:05.962Z,41.80
2019-05-25T15:53:34.894Z,43.00
2019-05-25T15:56:03.439Z,43.70
2019-05-25T15:58:32.070Z,42.70
2019-05-25T16:01:00.858Z,42.80
2019-05-25T16:03:29.467Z,42.10
2019-05-25T16:05:58.138Z,44.20
2019-05-25T16:08:27.139Z,42.50
2019-05-25T16:10:55.679Z,41.20
2019-05-25T16:13:24.404Z,43.00
2019-05-25T16:15:52.959Z,43.00
2019-05-25T16:18:21.586Z,43.20
2019-05-25T16:20:50.209Z,40.70
2019-05-25T16:23:18.840Z,41.90
2019-05-25T16:25:47.421Z,41.50
2019-05-25T16:28:15.964Z,41.60
2019-05-25T16:30:45.880Z,41.30
2019-05-25T16:33:15.107Z,43.60
2019-05-25T16:35:43.827Z,40.60
2019-05-25T16:38:12.533Z,43.70
2019-05-25T16:40:41.550Z,42.20
2019-05-25T16:43:10.172Z,43.40
2019-05-25T16:45:39.132Z,42.80
2019-05-25T16:48:07.798Z,42.20
2019-05-25T16:50:36.491Z,43.10
2019-05-25T16:53:05.162Z,44.60
2019-05-25T16:55:33.702Z,41.80
2019-05-25T16:58:02.307Z,43.60
2019-05-25T17:00:30.923Z,43.70
2019-05-25T17:02:59.912Z,43.30
2019-05-25T17:05:29.262Z,44.10
2019-05-25T17:07:58.087Z,43.90
2019-05-25T17:10:27.833Z,44.20
2019-05-25T17:12:56.601Z,43.80
2019-05-25T17:15:28.136Z,44.70
2019-05-25T17:17:56.683Z,45.80
2019-05-25T17:20:25.362Z,45.90
2019-05-25T17:22:53.902Z,47.30
2019-05-25T17:25:22.579Z,46.50
2019-05-25T17:27:51.115Z,47.40
2019-05-25T17:30:22.816Z,48.10
2019-05-25T17:32:51.735Z,47.20
2019-05-25T17:35:20.346Z,48.20
2019-05-25T17:37:48.964Z,47.50
2019-05-25T17:40:17.458Z,47.00
2019-05-25T17:42:46.307Z,49.10
2019-05-25T17:45:15.111Z,48.50
2019-05-25T17:47:43.669Z,48.90
2019-05-25T17:50:12.562Z,49.60
2019-05-25T17:52:41.147Z,50.50
2019-05-25T17:55:10.917Z,50.50
2019-05-25T17:57:39.530Z,51.60
2019-05-25T18:00:09.941Z,51.30
2019-05-25T18:02:38.668Z,51.60
2019-05-25T18:05:08.740Z,51.90
2019-05-25T18:07:37.463Z,52.00
2019-05-25T18:10:10.567Z,52.10
2019-05-25T18:12:39.393Z,52.20
2019-05-25T18:15:12.279Z,53.00
2019-05-25T18:17:40.839Z,52.10
2019-05-25T18:20:11.207Z,52.60
2019-05-25T18:22:39.949Z,53.40
2019-05-25T18:25:09.648Z,53.10
2019-05-25T18:27:38.205Z,53.10
2019-05-25T18:30:08.908Z,53.40
2019-05-25T18:32:37.448Z,53.50
2019-05-25T18:35:09.559Z,53.70
2019-05-25T18:37:38.148Z,53.90
2019-05-25T18:40:08.480Z,54.00
2019-05-25T18:42:37.122Z,54.30
2019-05-25T18:45:07.495Z,54.30
2019-05-25T18:47:57.962Z,54.90
2019-05-25T18:50:26.914Z,55.30
2019-05-25T18:52:55.455Z,56.00
2019-05-25T18:55:24.519Z,56.30
2019-05-25T18:57:53.370Z,56.90
2019-05-25T19:00:22.337Z,56.60
2019-05-25T19:02:51.191Z,57.20
2019-05-25T19:05:20.642Z,57.60
2019-05-25T19:07:49.213Z,58.00
2019-05-25T19:10:26.614Z,58.40
2019-05-25T19:12:54.410Z,59.70
2019-05-25T19:15:23.012Z,59.80
2019-05-25T19:17:51.584Z,59.30
2019-05-25T19:20:21.424Z,59.80
2019-05-25T19:22:50.269Z,59.60
2019-05-25T19:25:19.442Z,59.90
2019-05-25T19:27:48.103Z,60.30
2019-05-25T19:30:18.698Z,61.50
2019-05-25T19:32:47.721Z,62.20
2019-05-25T19:35:17.104Z,62.90
2019-05-25T19:37:47.036Z,63.40
2019-05-25T19:40:16.136Z,64.10
2019-05-25T19:42:52.881Z,64.30
2019-05-25T19:45:21.735Z,64.80
2019-05-25T19:47:50.562Z,65.00
2019-05-25T19:50:19.984Z,65.30
2019-05-25T19:52:49.357Z,65.80
2019-05-25T19:55:20.400Z,66.40
2019-05-25T19:58:08.731Z,66.60
2019-05-25T20:00:39.081Z,67.30
2019-05-25T20:03:08.172Z,67.20
2019-05-25T20:05:36.843Z,68.00
2019-05-25T20:08:05.950Z,68.10
2019-05-25T20:10:35.256Z,68.20
2019-05-25T20:13:04.912Z,68.30
2019-05-25T20:15:33.915Z,69.00
2019-05-25T20:18:03.063Z,69.10
2019-05-25T20:20:31.718Z,69.50
2019-05-25T20:23:00.332Z,69.80
2019-05-25T20:25:48.270Z,70.00
2019-05-25T20:28:18.558Z,70.30
2019-05-25T20:30:47.425Z,70.40
2019-05-25T20:33:26.896Z,70.30
2019-05-25T20:35:47.017Z,70.40
2019-05-25T20:38:16.051Z,70.70
2019-05-25T20:40:44.938Z,71.00
2019-05-25T20:43:14.364Z,71.30
2019-05-25T20:45:43.164Z,71.40
2019-05-25T20:48:13.320Z,71.70
2019-05-25T20:50:42.242Z,72.30
2019-05-25T20:53:11.167Z,72.60
2019-05-25T20:55:40.331Z,73.30
2019-05-25T20:58:08.847Z,73.70
2019-05-25T21:00:37.393Z,74.10
2019-05-25T21:03:06.961Z,73.90
2019-05-25T21:05:48.943Z,74.10
2019-05-25T21:08:05.964Z,74.30
2019-05-25T21:10:34.592Z,74.30
2019-05-25T21:13:03.191Z,74.10
2019-05-25T21:15:33.478Z,73.90
2019-05-25T21:18:02.319Z,74.10
2019-05-25T21:20:31.020Z,74.00
2019-05-25T21:22:59.713Z,74.40
2019-05-25T21:25:28.354Z,74.90
2019-05-25T21:27:56.948Z,75.00
2019-05-25T21:30:25.583Z,75.20
2019-05-25T21:32:54.123Z,75.30
2019-05-25T21:35:22.697Z,75.60
2019-05-25T21:37:51.255Z,76.10
2019-05-25T21:40:19.936Z,77.00
2019-05-25T21:42:48.504Z,76.70
2019-05-25T21:45:17.851Z,76.80
2019-05-25T21:47:46.395Z,77.10
2019-05-25T21:50:15.571Z,76.90
2019-05-25T21:52:44.096Z,76.80
2019-05-25T21:55:12.935Z,76.90
2019-05-25T21:57:41.484Z,77.20
2019-05-25T22:00:32.565Z,77.70
2019-05-25T22:03:01.272Z,77.40
2019-05-25T22:05:30.946Z,77.50
2019-05-25T22:08:00.089Z,77.40
2019-05-25T22:10:28.778Z,77.50
2019-05-25T22:12:57.332Z,77.60
2019-05-25T22:15:25.988Z,77.50
2019-05-25T22:17:54.656Z,77.50
2019-05-25T22:20:23.234Z,78.30
2019-05-25T22:22:51.778Z,78.90
2019-05-25T22:25:20.443Z,79.00
2019-05-25T22:27:49.006Z,78.80
2019-05-25T22:30:18.650Z,78.60
2019-05-25T22:32:47.200Z,78.80
2019-05-25T22:35:16.003Z,80.10
2019-05-25T22:37:44.578Z,80.40
2019-05-25T22:40:13.363Z,80.40
2019-05-25T22:42:41.935Z,80.40
2019-05-25T22:45:11.748Z,80.40
2019-05-25T22:47:40.585Z,80.30
2019-05-25T22:50:09.779Z,80.10
2019-05-25T22:52:38.324Z,80.30
2019-05-25T22:55:08.026Z,80.00
2019-05-25T22:57:36.638Z,80.30
2019-05-25T23:00:26.060Z,80.50
2019-05-25T23:02:54.666Z,80.60
2019-05-25T23:05:23.203Z,80.50
2019-05-25T23:07:51.836Z,80.30
2019-05-25T23:10:20.510Z,80.60
2019-05-25T23:12:49.071Z,80.50
2019-05-25T23:15:18.165Z,80.90
2019-05-25T23:17:46.759Z,82.60
2019-05-25T23:20:15.467Z,82.80
2019-05-25T23:22:44.012Z,82.80
2019-05-25T23:25:12.674Z,82.60
2019-05-25T23:27:41.260Z,82.80
2019-05-25T23:30:10.426Z,83.00
2019-05-25T23:32:38.960Z,83.30
2019-05-25T23:35:07.689Z,83.90
2019-05-25T23:37:36.207Z,83.90
2019-05-25T23:40:08.596Z,83.70
2019-05-25T23:42:37.142Z,83.50
2019-05-25T23:45:07.665Z,83.50
2019-05-25T23:47:36.447Z,83.30
2019-05-25T23:50:07.893Z,83.40
2019-05-25T23:52:36.509Z,83.70
2019-05-25T23:55:08.643Z,84.30
2019-05-25T23:57:37.202Z,84.00
